LEBL/BCN METAR and TAF weather

Enter ICAO airport designator
Station Type Date Time Source
LEBL METAR 2019/10/18 11:00 UTC NOAA

LEBL 181100Z 29002KT 9999 FEW030 22/13 Q1015 NOSIG


Station Type Date Time Source
LEBL Decoded METAR 2019/10/18 11:00 UTC NOAA

Barcelona / Aeropuerto, Spain (LEBL) 41-17N 002-04E 6M
Oct 18, 2019 - 07:00 AM EDT / 2019.10.18 1100 UTC
Wind: from the WNW (290 degrees) at 2 MPH (2 KT):0
Visibility: greater than 7 mile(s):0
Sky conditions: mostly clear
Temperature: 71 F (22 C)
Dew Point: 55 F (13 C)
Relative Humidity: 56%
Pressure (altimeter): 29.97 in. Hg (1015 hPa)
ob: LEBL 181100Z 29002KT 9999 FEW030 22/13 Q1015 NOSIG
cycle: 11

Station Type Date Time Source
LEBL TAF 2019/10/18 12:27 UTC NOAA

TAF LEBL 181100Z 1812/1912 21010KT 9999 FEW030 TX25/1812Z TN16/1906Z
BECMG 1822/1824 34003KT
BECMG 1910/1912 19008KT

Example: see airport list